sensor_id;sensor_type;location;lat;lon;timestamp;P1;P2;P0
14880;PMS7003;7533;51.278;12.588;2024-01-11T00:00:15;57.40;44.60;27.80
14880;PMS7003;7533;51.278;12.588;2024-01-11T00:05:18;54.60;43.60;28.00
14880;PMS7003;7533;51.278;12.588;2024-01-11T00:10:21;54.80;42.40;27.40
14880;PMS7003;7533;51.278;12.588;2024-01-11T00:15:26;54.80;43.00;27.20
14880;PMS7003;7533;51.278;12.588;2024-01-11T00:20:29;53.00;41.60;26.00
14880;PMS7003;7533;51.278;12.588;2024-01-11T00:25:32;55.60;43.60;28.00
14880;PMS7003;7533;51.278;12.588;2024-01-11T00:30:36;52.60;41.20;26.00
14880;PMS7003;7533;51.278;12.588;2024-01-11T00:35:39;55.40;42.00;26.00
14880;PMS7003;7533;51.278;12.588;2024-01-11T00:40:42;56.60;44.00;27.00
14880;PMS7003;7533;51.278;12.588;2024-01-11T00:45:46;50.80;40.40;26.20
14880;PMS7003;7533;51.278;12.588;2024-01-11T00:50:49;57.00;43.40;26.20
14880;PMS7003;7533;51.278;12.588;2024-01-11T00:55:52;57.00;41.40;27.00
14880;PMS7003;7533;51.278;12.588;2024-01-11T01:00:57;52.20;40.60;26.00
14880;PMS7003;7533;51.278;12.588;2024-01-11T01:06:00;51.20;41.00;26.00
14880;PMS7003;7533;51.278;12.588;2024-01-11T01:11:03;49.60;39.40;25.20
14880;PMS7003;7533;51.278;12.588;2024-01-11T01:16:07;53.60;42.60;26.60
14880;PMS7003;7533;51.278;12.588;2024-01-11T01:21:10;53.40;42.00;26.00
14880;PMS7003;7533;51.278;12.588;2024-01-11T01:26:13;51.00;39.80;25.40
14880;PMS7003;7533;51.278;12.588;2024-01-11T01:31:17;52.80;41.80;26.00
14880;PMS7003;7533;51.278;12.588;2024-01-11T01:36:20;53.20;42.40;26.00
14880;PMS7003;7533;51.278;12.588;2024-01-11T01:41:23;52.40;40.20;25.20
14880;PMS7003;7533;51.278;12.588;2024-01-11T01:46:27;50.20;39.20;24.20
14880;PMS7003;7533;51.278;12.588;2024-01-11T01:51:30;46.40;38.80;24.00
14880;PMS7003;7533;51.278;12.588;2024-01-11T01:56:34;51.00;40.80;26.00
14880;PMS7003;7533;51.278;12.588;2024-01-11T02:01:38;47.40;38.80;25.20
14880;PMS7003;7533;51.278;12.588;2024-01-11T02:06:43;52.40;40.80;25.40
14880;PMS7003;7533;51.278;12.588;2024-01-11T02:11:47;51.80;39.60;26.00
14880;PMS7003;7533;51.278;12.588;2024-01-11T02:16:52;50.60;40.00;26.00
14880;PMS7003;7533;51.278;12.588;2024-01-11T02:21:54;46.80;37.80;23.60
14880;PMS7003;7533;51.278;12.588;2024-01-11T02:27:04;49.60;39.20;24.80
14880;PMS7003;7533;51.278;12.588;2024-01-11T02:32:07;48.40;39.20;25.00
14880;PMS7003;7533;51.278;12.588;2024-01-11T02:37:10;51.40;39.00;24.00
14880;PMS7003;7533;51.278;12.588;2024-01-11T02:42:15;48.20;39.80;25.00
14880;PMS7003;7533;51.278;12.588;2024-01-11T02:47:18;52.00;40.00;24.00
14880;PMS7003;7533;51.278;12.588;2024-01-11T02:52:22;48.20;38.60;24.60
14880;PMS7003;7533;51.278;12.588;2024-01-11T02:57:26;48.00;39.00;23.60
14880;PMS7003;7533;51.278;12.588;2024-01-11T03:02:29;45.80;37.40;23.00
14880;PMS7003;7533;51.278;12.588;2024-01-11T03:07:32;48.00;38.20;24.20
14880;PMS7003;7533;51.278;12.588;2024-01-11T03:12:36;48.40;37.40;23.00
14880;PMS7003;7533;51.278;12.588;2024-01-11T03:17:39;47.40;38.60;23.40
14880;PMS7003;7533;51.278;12.588;2024-01-11T03:22:45;51.40;39.80;24.60
14880;PMS7003;7533;51.278;12.588;2024-01-11T03:27:49;46.00;37.80;23.00
14880;PMS7003;7533;51.278;12.588;2024-01-11T03:32:52;46.80;37.80;23.60
14880;PMS7003;7533;51.278;12.588;2024-01-11T03:37:55;48.80;39.40;24.00
14880;PMS7003;7533;51.278;12.588;2024-01-11T03:42:59;44.00;37.60;24.40
14880;PMS7003;7533;51.278;12.588;2024-01-11T03:48:02;46.80;36.40;24.60
14880;PMS7003;7533;51.278;12.588;2024-01-11T03:53:06;45.60;36.00;22.80
14880;PMS7003;7533;51.278;12.588;2024-01-11T03:58:10;47.00;37.00;22.80
14880;PMS7003;7533;51.278;12.588;2024-01-11T04:03:13;45.40;37.00;23.80
14880;PMS7003;7533;51.278;12.588;2024-01-11T04:08:16;49.40;38.40;23.80
14880;PMS7003;7533;51.278;12.588;2024-01-11T04:13:20;46.80;35.20;23.00
14880;PMS7003;7533;51.278;12.588;2024-01-11T04:18:25;46.00;36.40;23.20
14880;PMS7003;7533;51.278;12.588;2024-01-11T04:23:28;44.60;35.80;22.00
14880;PMS7003;7533;51.278;12.588;2024-01-11T04:28:33;43.00;34.40;21.80
14880;PMS7003;7533;51.278;12.588;2024-01-11T04:33:36;45.60;37.00;22.80
14880;PMS7003;7533;51.278;12.588;2024-01-11T04:38:42;46.40;36.60;23.00
14880;PMS7003;7533;51.278;12.588;2024-01-11T04:43:47;44.60;34.20;22.20
14880;PMS7003;7533;51.278;12.588;2024-01-11T04:48:50;46.40;33.40;22.40
14880;PMS7003;7533;51.278;12.588;2024-01-11T04:53:54;45.00;36.00;22.80
14880;PMS7003;7533;51.278;12.588;2024-01-11T04:58:58;43.60;36.00;22.80
14880;PMS7003;7533;51.278;12.588;2024-01-11T05:04:01;43.00;33.80;21.00
14880;PMS7003;7533;51.278;12.588;2024-01-11T05:09:04;44.40;36.80;23.00
14880;PMS7003;7533;51.278;12.588;2024-01-11T05:14:08;42.20;34.40;21.60
14880;PMS7003;7533;51.278;12.588;2024-01-11T05:19:11;44.20;34.00;22.40
14880;PMS7003;7533;51.278;12.588;2024-01-11T05:24:14;39.00;31.60;21.20
14880;PMS7003;7533;51.278;12.588;2024-01-11T05:29:18;38.80;32.40;22.00
14880;PMS7003;7533;51.278;12.588;2024-01-11T05:34:21;43.60;36.40;22.00
14880;PMS7003;7533;51.278;12.588;2024-01-11T05:39:24;45.80;34.00;21.00
14880;PMS7003;7533;51.278;12.588;2024-01-11T05:44:28;37.20;32.60;21.00
14880;PMS7003;7533;51.278;12.588;2024-01-11T05:49:31;46.20;36.20;22.40
14880;PMS7003;7533;51.278;12.588;2024-01-11T05:54:34;38.20;32.60;21.20
14880;PMS7003;7533;51.278;12.588;2024-01-11T05:59:38;41.00;33.40;21.00
14880;PMS7003;7533;51.278;12.588;2024-01-11T06:04:46;42.40;35.00;22.00
14880;PMS7003;7533;51.278;12.588;2024-01-11T06:09:50;43.60;33.20;21.00
14880;PMS7003;7533;51.278;12.588;2024-01-11T06:14:55;38.60;33.20;21.00
14880;PMS7003;7533;51.278;12.588;2024-01-11T06:19:59;42.80;33.80;21.40
14880;PMS7003;7533;51.278;12.588;2024-01-11T06:25:02;34.20;30.20;20.40
14880;PMS7003;7533;51.278;12.588;2024-01-11T06:30:07;42.40;33.80;20.60
14880;PMS7003;7533;51.278;12.588;2024-01-11T06:35:11;41.20;32.20;20.80
14880;PMS7003;7533;51.278;12.588;2024-01-11T06:40:14;42.00;33.60;21.00
14880;PMS7003;7533;51.278;12.588;2024-01-11T06:45:18;33.60;29.60;20.60
14880;PMS7003;7533;51.278;12.588;2024-01-11T06:50:21;41.60;34.40;21.80
14880;PMS7003;7533;51.278;12.588;2024-01-11T06:55:24;39.80;33.60;21.60
14880;PMS7003;7533;51.278;12.588;2024-01-11T07:00:28;37.60;32.60;21.00
14880;PMS7003;7533;51.278;12.588;2024-01-11T07:05:31;40.40;35.00;21.40
14880;PMS7003;7533;51.278;12.588;2024-01-11T07:10:34;36.00;29.60;19.00
14880;PMS7003;7533;51.278;12.588;2024-01-11T07:15:38;40.60;33.60;20.80
14880;PMS7003;7533;51.278;12.588;2024-01-11T07:20:41;39.20;32.00;21.40
14880;PMS7003;7533;51.278;12.588;2024-01-11T07:25:45;39.40;31.60;21.00
14880;PMS7003;7533;51.278;12.588;2024-01-11T07:30:49;32.40;29.60;19.20
14880;PMS7003;7533;51.278;12.588;2024-01-11T07:35:52;38.00;32.80;21.80
14880;PMS7003;7533;51.278;12.588;2024-01-11T07:40:55;37.40;32.00;20.20
14880;PMS7003;7533;51.278;12.588;2024-01-11T07:46:00;38.60;31.80;21.00
14880;PMS7003;7533;51.278;12.588;2024-01-11T07:51:03;36.80;31.20;19.60
14880;PMS7003;7533;51.278;12.588;2024-01-11T07:56:06;36.20;31.00;19.40
14880;PMS7003;7533;51.278;12.588;2024-01-11T08:01:11;38.40;31.80;19.80
14880;PMS7003;7533;51.278;12.588;2024-01-11T08:06:14;40.00;32.20;19.60
14880;PMS7003;7533;51.278;12.588;2024-01-11T08:11:17;34.60;31.00;19.00
14880;PMS7003;7533;51.278;12.588;2024-01-11T08:16:22;32.80;30.00;21.00
14880;PMS7003;7533;51.278;12.588;2024-01-11T08:21:24;30.80;26.80;17.00
14880;PMS7003;7533;51.278;12.588;2024-01-11T08:26:28;32.80;29.20;19.00
14880;PMS7003;7533;51.278;12.588;2024-01-11T08:31:34;29.60;27.60;17.40
14880;PMS7003;7533;51.278;12.588;2024-01-11T08:36:40;30.60;28.00;18.20
14880;PMS7003;7533;51.278;12.588;2024-01-11T08:41:43;33.80;29.40;19.00
14880;PMS7003;7533;51.278;12.588;2024-01-11T08:46:48;34.40;28.20;18.80
14880;PMS7003;7533;51.278;12.588;2024-01-11T08:51:51;31.25;28.75;15.75
14880;PMS7003;7533;51.278;12.588;2024-01-11T08:56:54;31.20;28.60;19.00
14880;PMS7003;7533;51.278;12.588;2024-01-11T09:01:58;29.00;27.60;17.20
14880;PMS7003;7533;51.278;12.588;2024-01-11T09:07:15;29.60;27.80;17.80
14880;PMS7003;7533;51.278;12.588;2024-01-11T09:12:18;31.60;27.00;17.20
14880;PMS7003;7533;51.278;12.588;2024-01-11T09:17:23;34.80;29.60;16.40
14880;PMS7003;7533;51.278;12.588;2024-01-11T09:22:26;31.40;27.40;17.80
14880;PMS7003;7533;51.278;12.588;2024-01-11T09:27:29;34.00;26.20;17.00
14880;PMS7003;7533;51.278;12.588;2024-01-11T09:32:33;33.00;28.20;18.20
14880;PMS7003;7533;51.278;12.588;2024-01-11T09:37:37;26.25;25.00;16.75
14880;PMS7003;7533;51.278;12.588;2024-01-11T09:42:40;26.50;24.00;15.50
14880;PMS7003;7533;51.278;12.588;2024-01-11T09:47:45;29.80;26.00;16.80
14880;PMS7003;7533;51.278;12.588;2024-01-11T09:52:49;30.60;27.60;17.80
14880;PMS7003;7533;51.278;12.588;2024-01-11T09:57:53;33.00;28.80;18.40
14880;PMS7003;7533;51.278;12.588;2024-01-11T10:03:03;27.60;26.40;16.80
14880;PMS7003;7533;51.278;12.588;2024-01-11T10:08:06;34.20;29.80;18.20
14880;PMS7003;7533;51.278;12.588;2024-01-11T10:13:11;76.00;63.80;39.00
14880;PMS7003;7533;51.278;12.588;2024-01-11T10:18:15;79.00;67.80;41.60
14880;PMS7003;7533;51.278;12.588;2024-01-11T10:23:18;73.60;58.80;35.80
14880;PMS7003;7533;51.278;12.588;2024-01-11T10:28:21;74.80;63.60;38.80
14880;PMS7003;7533;51.278;12.588;2024-01-11T10:33:26;116.80;98.40;54.20
14880;PMS7003;7533;51.278;12.588;2024-01-11T10:38:29;176.20;150.60;79.40
14880;PMS7003;7533;51.278;12.588;2024-01-11T10:43:35;244.80;195.80;95.40
14880;PMS7003;7533;51.278;12.588;2024-01-11T10:48:41;296.00;239.00;117.67
14880;PMS7003;7533;51.278;12.588;2024-01-11T10:53:46;298.00;238.33;118.67
14880;PMS7003;7533;51.278;12.588;2024-01-11T10:58:52;317.25;248.00;123.50
14880;PMS7003;7533;51.278;12.588;2024-01-11T11:03:58;345.67;279.00;127.67
14880;PMS7003;7533;51.278;12.588;2024-01-11T11:09:03;354.75;278.25;134.25
14880;PMS7003;7533;51.278;12.588;2024-01-11T11:14:06;373.25;303.75;139.00
14880;PMS7003;7533;51.278;12.588;2024-01-11T11:19:11;400.25;317.00;150.00
14880;PMS7003;7533;51.278;12.588;2024-01-11T11:24:15;407.50;335.00;150.00
14880;PMS7003;7533;51.278;12.588;2024-01-11T11:29:19;447.00;359.25;153.75
14880;PMS7003;7533;51.278;12.588;2024-01-11T11:39:47;465.75;365.25;160.00
14880;PMS7003;7533;51.278;12.588;2024-01-11T11:44:50;471.75;376.25;160.25
14880;PMS7003;7533;51.278;12.588;2024-01-11T11:49:58;479.25;386.75;163.75
14880;PMS7003;7533;51.278;12.588;2024-01-11T11:55:07;468.00;360.25;154.00
14880;PMS7003;7533;51.278;12.588;2024-01-11T12:00:11;433.50;339.75;148.25
14880;PMS7003;7533;51.278;12.588;2024-01-11T12:05:17;409.25;324.50;143.50
14880;PMS7003;7533;51.278;12.588;2024-01-11T12:10:21;401.00;318.50;137.75
14880;PMS7003;7533;51.278;12.588;2024-01-11T12:15:26;378.25;304.00;136.00
14880;PMS7003;7533;51.278;12.588;2024-01-11T12:20:31;371.25;300.75;140.00
14880;PMS7003;7533;51.278;12.588;2024-01-11T12:25:34;379.00;297.67;128.33
14880;PMS7003;7533;51.278;12.588;2024-01-11T12:30:37;358.33;289.33;123.00
14880;PMS7003;7533;51.278;12.588;2024-01-11T12:35:42;344.33;281.33;125.67
14880;PMS7003;7533;51.278;12.588;2024-01-11T12:40:45;341.00;277.33;124.67
14880;PMS7003;7533;51.278;12.588;2024-01-11T12:45:48;353.67;278.67;124.00
14880;PMS7003;7533;51.278;12.588;2024-01-11T12:50:53;324.67;261.33;122.67
14880;PMS7003;7533;51.278;12.588;2024-01-11T12:56:15;317.33;256.33;118.00
14880;PMS7003;7533;51.278;12.588;2024-01-11T13:01:18;318.33;261.67;117.67
14880;PMS7003;7533;51.278;12.588;2024-01-11T13:06:23;317.67;254.33;118.00
14880;PMS7003;7533;51.278;12.588;2024-01-11T13:11:27;310.33;252.00;113.67
14880;PMS7003;7533;51.278;12.588;2024-01-11T13:16:30;307.67;242.00;113.00
14880;PMS7003;7533;51.278;12.588;2024-01-11T13:21:35;314.00;242.50;109.00
14880;PMS7003;7533;51.278;12.588;2024-01-11T13:26:38;286.33;228.33;109.33
14880;PMS7003;7533;51.278;12.588;2024-01-11T13:31:42;292.00;231.50;107.50
14880;PMS7003;7533;51.278;12.588;2024-01-11T13:36:46;284.00;220.00;107.67
14880;PMS7003;7533;51.278;12.588;2024-01-11T13:41:49;283.00;233.75;109.50
14880;PMS7003;7533;51.278;12.588;2024-01-11T13:46:52;266.00;220.00;103.67
14880;PMS7003;7533;51.278;12.588;2024-01-11T13:51:56;286.00;219.80;100.40
14880;PMS7003;7533;51.278;12.588;2024-01-11T13:57:02;271.67;223.67;103.00
14880;PMS7003;7533;51.278;12.588;2024-01-11T14:02:05;264.20;215.40;102.00
14880;PMS7003;7533;51.278;12.588;2024-01-11T14:07:10;252.33;208.67;100.00
14880;PMS7003;7533;51.278;12.588;2024-01-11T14:12:13;258.33;206.67;100.67
14880;PMS7003;7533;51.278;12.588;2024-01-11T14:17:17;263.33;206.33;98.33
14880;PMS7003;7533;51.278;12.588;2024-01-11T14:22:21;254.25;195.50;93.00
14880;PMS7003;7533;51.278;12.588;2024-01-11T14:27:27;233.60;197.40;91.20
14880;PMS7003;7533;51.278;12.588;2024-01-11T14:32:34;228.20;190.80;91.60
14880;PMS7003;7533;51.278;12.588;2024-01-11T14:37:40;224.20;184.60;90.00
14880;PMS7003;7533;51.278;12.588;2024-01-11T14:42:44;226.80;190.60;89.80
14880;PMS7003;7533;51.278;12.588;2024-01-11T14:47:47;217.60;183.80;85.20
14880;PMS7003;7533;51.278;12.588;2024-01-11T14:52:52;235.60;180.60;86.00
14880;PMS7003;7533;51.278;12.588;2024-01-11T14:57:55;215.60;178.60;84.80
14880;PMS7003;7533;51.278;12.588;2024-01-11T15:03:00;210.80;180.40;88.00
14880;PMS7003;7533;51.278;12.588;2024-01-11T15:08:05;222.40;183.20;87.60
14880;PMS7003;7533;51.278;12.588;2024-01-11T15:13:08;198.80;170.20;81.20
14880;PMS7003;7533;51.278;12.588;2024-01-11T15:18:11;201.80;164.80;81.00
14880;PMS7003;7533;51.278;12.588;2024-01-11T15:23:16;201.80;166.00;81.20
14880;PMS7003;7533;51.278;12.588;2024-01-11T15:28:19;193.00;162.40;79.80
14880;PMS7003;7533;51.278;12.588;2024-01-11T15:33:22;184.00;151.80;79.20
14880;PMS7003;7533;51.278;12.588;2024-01-11T15:38:27;202.40;164.40;79.00
14880;PMS7003;7533;51.278;12.588;2024-01-11T15:43:30;187.60;150.80;76.40
14880;PMS7003;7533;51.278;12.588;2024-01-11T15:48:33;190.60;156.20;74.40
14880;PMS7003;7533;51.278;12.588;2024-01-11T15:53:38;176.60;149.00;74.20
14880;PMS7003;7533;51.278;12.588;2024-01-11T15:58:41;178.80;147.60;74.80
14880;PMS7003;7533;51.278;12.588;2024-01-11T16:03:44;180.00;147.20;69.20
14880;PMS7003;7533;51.278;12.588;2024-01-11T16:08:51;172.80;142.20;68.60
14880;PMS7003;7533;51.278;12.588;2024-01-11T16:13:53;171.40;144.40;70.20
14880;PMS7003;7533;51.278;12.588;2024-01-11T16:18:56;157.00;135.60;66.20
14880;PMS7003;7533;51.278;12.588;2024-01-11T16:24:02;163.40;129.00;66.60
14880;PMS7003;7533;51.278;12.588;2024-01-11T16:29:05;155.00;130.00;64.40
14880;PMS7003;7533;51.278;12.588;2024-01-11T16:34:08;157.80;128.80;66.20
14880;PMS7003;7533;51.278;12.588;2024-01-11T16:39:14;156.60;129.40;64.00
14880;PMS7003;7533;51.278;12.588;2024-01-11T16:44:17;151.40;131.60;66.40
14880;PMS7003;7533;51.278;12.588;2024-01-11T16:49:20;153.40;125.40;63.20
14880;PMS7003;7533;51.278;12.588;2024-01-11T16:54:26;146.00;122.40;60.00
14880;PMS7003;7533;51.278;12.588;2024-01-11T16:59:29;154.00;123.00;62.40
14880;PMS7003;7533;51.278;12.588;2024-01-11T17:04:32;152.00;120.80;58.80
14880;PMS7003;7533;51.278;12.588;2024-01-11T17:09:36;141.40;120.40;57.80
14880;PMS7003;7533;51.278;12.588;2024-01-11T17:14:39;141.20;117.60;61.00
14880;PMS7003;7533;51.278;12.588;2024-01-11T17:19:42;129.20;114.80;58.20
14880;PMS7003;7533;51.278;12.588;2024-01-11T17:24:47;134.80;115.40;59.40
14880;PMS7003;7533;51.278;12.588;2024-01-11T17:29:49;134.00;108.40;55.20
14880;PMS7003;7533;51.278;12.588;2024-01-11T17:34:52;125.80;105.80;53.80
14880;PMS7003;7533;51.278;12.588;2024-01-11T17:39:58;118.00;104.20;50.40
14880;PMS7003;7533;51.278;12.588;2024-01-11T17:45:01;114.80;97.80;49.20
14880;PMS7003;7533;51.278;12.588;2024-01-11T17:50:05;108.60;93.40;45.40
14880;PMS7003;7533;51.278;12.588;2024-01-11T17:55:10;110.00;95.20;48.40
14880;PMS7003;7533;51.278;12.588;2024-01-11T18:00:14;105.00;86.20;46.20
14880;PMS7003;7533;51.278;12.588;2024-01-11T18:05:17;111.20;90.60;47.20
14880;PMS7003;7533;51.278;12.588;2024-01-11T18:10:23;106.20;87.80;44.60
14880;PMS7003;7533;51.278;12.588;2024-01-11T18:15:26;97.00;81.00;42.80
14880;PMS7003;7533;51.278;12.588;2024-01-11T18:20:29;88.20;76.80;38.80
14880;PMS7003;7533;51.278;12.588;2024-01-11T18:25:33;89.80;75.80;38.40
14880;PMS7003;7533;51.278;12.588;2024-01-11T18:30:36;86.40;75.60;38.20
14880;PMS7003;7533;51.278;12.588;2024-01-11T18:35:39;83.20;70.60;38.80
14880;PMS7003;7533;51.278;12.588;2024-01-11T18:40:44;91.80;78.60;43.60
14880;PMS7003;7533;51.278;12.588;2024-01-11T18:45:47;84.60;73.40;42.20
14880;PMS7003;7533;51.278;12.588;2024-01-11T18:50:52;80.00;71.00;43.00
14880;PMS7003;7533;51.278;12.588;2024-01-11T18:55:57;74.80;65.20;40.20
14880;PMS7003;7533;51.278;12.588;2024-01-11T19:01:00;76.00;65.40;39.80
14880;PMS7003;7533;51.278;12.588;2024-01-11T19:06:09;74.00;61.60;37.60
14880;PMS7003;7533;51.278;12.588;2024-01-11T19:11:14;81.00;70.60;39.20
14880;PMS7003;7533;51.278;12.588;2024-01-11T19:16:18;74.00;63.40;38.20
14880;PMS7003;7533;51.278;12.588;2024-01-11T19:21:22;71.80;58.80;34.60
14880;PMS7003;7533;51.278;12.588;2024-01-11T19:26:26;68.40;55.40;33.40
14880;PMS7003;7533;51.278;12.588;2024-01-11T19:31:29;70.60;55.20;34.40
14880;PMS7003;7533;51.278;12.588;2024-01-11T19:36:36;73.00;55.20;33.20
14880;PMS7003;7533;51.278;12.588;2024-01-11T19:41:41;71.00;55.00;32.80
14880;PMS7003;7533;51.278;12.588;2024-01-11T19:46:44;65.60;51.20;31.40
14880;PMS7003;7533;51.278;12.588;2024-01-11T19:51:47;68.80;54.00;32.20
14880;PMS7003;7533;51.278;12.588;2024-01-11T19:56:51;68.20;53.00;32.60
14880;PMS7003;7533;51.278;12.588;2024-01-11T20:01:54;66.40;49.60;32.00
14880;PMS7003;7533;51.278;12.588;2024-01-11T20:06:59;67.00;52.00;33.00
14880;PMS7003;7533;51.278;12.588;2024-01-11T20:12:05;68.40;52.80;32.00
14880;PMS7003;7533;51.278;12.588;2024-01-11T20:17:09;66.80;51.20;32.20
14880;PMS7003;7533;51.278;12.588;2024-01-11T20:22:12;65.80;50.60;31.60
14880;PMS7003;7533;51.278;12.588;2024-01-11T20:27:16;67.00;49.00;30.80
14880;PMS7003;7533;51.278;12.588;2024-01-11T20:32:19;60.80;47.40;30.20
14880;PMS7003;7533;51.278;12.588;2024-01-11T20:37:22;65.60;49.00;29.40
14880;PMS7003;7533;51.278;12.588;2024-01-11T20:42:27;64.40;50.00;30.40
14880;PMS7003;7533;51.278;12.588;2024-01-11T20:47:29;65.00;50.20;31.00
14880;PMS7003;7533;51.278;12.588;2024-01-11T20:52:33;60.00;46.60;30.00
14880;PMS7003;7533;51.278;12.588;2024-01-11T20:57:38;62.00;46.80;29.40
14880;PMS7003;7533;51.278;12.588;2024-01-11T21:02:41;62.00;47.60;30.60
14880;PMS7003;7533;51.278;12.588;2024-01-11T21:07:44;58.00;45.60;29.20
14880;PMS7003;7533;51.278;12.588;2024-01-11T21:12:48;61.60;46.40;29.00
14880;PMS7003;7533;51.278;12.588;2024-01-11T21:17:51;58.00;46.60;29.80
14880;PMS7003;7533;51.278;12.588;2024-01-11T21:22:54;59.00;46.40;29.20
14880;PMS7003;7533;51.278;12.588;2024-01-11T21:27:59;60.00;46.80;29.20
14880;PMS7003;7533;51.278;12.588;2024-01-11T21:33:02;58.20;46.60;28.00
14880;PMS7003;7533;51.278;12.588;2024-01-11T21:38:05;59.20;45.20;28.60
14880;PMS7003;7533;51.278;12.588;2024-01-11T21:43:11;60.00;46.80;29.00
14880;PMS7003;7533;51.278;12.588;2024-01-11T21:48:13;61.60;45.40;28.60
14880;PMS7003;7533;51.278;12.588;2024-01-11T21:53:17;57.60;43.80;28.00
14880;PMS7003;7533;51.278;12.588;2024-01-11T21:58:21;56.80;44.80;28.40
14880;PMS7003;7533;51.278;12.588;2024-01-11T22:03:27;52.80;43.20;26.60
14880;PMS7003;7533;51.278;12.588;2024-01-11T22:08:30;55.00;43.40;28.20
14880;PMS7003;7533;51.278;12.588;2024-01-11T22:13:35;53.80;43.00;26.00
14880;PMS7003;7533;51.278;12.588;2024-01-11T22:18:39;57.00;43.20;27.40
14880;PMS7003;7533;51.278;12.588;2024-01-11T22:23:43;53.20;41.40;26.60
14880;PMS7003;7533;51.278;12.588;2024-01-11T22:28:47;54.40;41.60;27.00
14880;PMS7003;7533;51.278;12.588;2024-01-11T22:33:50;52.40;41.20;26.00
14880;PMS7003;7533;51.278;12.588;2024-01-11T22:38:53;52.80;41.20;25.80
14880;PMS7003;7533;51.278;12.588;2024-01-11T22:43:58;53.60;42.40;27.00
14880;PMS7003;7533;51.278;12.588;2024-01-11T22:49:01;51.80;41.00;26.20
14880;PMS7003;7533;51.278;12.588;2024-01-11T22:54:06;51.80;41.40;26.00
14880;PMS7003;7533;51.278;12.588;2024-01-11T22:59:10;52.80;40.60;25.60
14880;PMS7003;7533;51.278;12.588;2024-01-11T23:04:13;52.40;40.60;24.40
14880;PMS7003;7533;51.278;12.588;2024-01-11T23:09:16;51.00;41.20;24.80
14880;PMS7003;7533;51.278;12.588;2024-01-11T23:14:20;50.80;40.60;26.00
14880;PMS7003;7533;51.278;12.588;2024-01-11T23:19:23;50.00;39.40;25.20
14880;PMS7003;7533;51.278;12.588;2024-01-11T23:24:27;50.00;40.80;25.00
14880;PMS7003;7533;51.278;12.588;2024-01-11T23:29:31;51.40;42.40;26.00
14880;PMS7003;7533;51.278;12.588;2024-01-11T23:34:34;51.00;40.40;25.40
14880;PMS7003;7533;51.278;12.588;2024-01-11T23:39:37;47.00;36.20;23.40
14880;PMS7003;7533;51.278;12.588;2024-01-11T23:44:42;46.00;38.20;23.80
14880;PMS7003;7533;51.278;12.588;2024-01-11T23:49:45;50.00;37.00;24.00
14880;PMS7003;7533;51.278;12.588;2024-01-11T23:54:48;46.20;37.00;22.80
14880;PMS7003;7533;51.278;12.588;2024-01-11T23:59:52;46.40;40.00;23.40
